AirNav   Textron
 
 1638 users online  

VG35 Walker Army Heliport
Fort Monroe, Virginia, USA

GOING TO FORT MONROE?


FAA INFORMATION EFFECTIVE 14 SEPTEMBER 2017

Location

FAA Identifier: VG35
Lat/Long: 37-01-00.0000N / 076-18-00.0000W
37-01.000000N / 076-18.000000W
37.0166667 / -76.3000000
(estimated)
Elevation: 7 ft. / 2 m (estimated)
Variation: 10W (1990)
From city: 10 miles N of FORT MONROE, VA
Time zone: UTC -4 (UTC -5 during Standard Time)
Zip code: 23651

Heliport Operations

Heliport use: Private use. Permission required prior to landing
Activation date: 07/1992
Control tower: no
ARTCC: WASHINGTON CENTER
FSS: LEESBURG FLIGHT SERVICE STATION
Attendance: UNATNDD
OFFICIAL BUSINESS ONLY.
Segmented circle: no

Heliport Communications

WX ASOS at ORF (9 nm SE): PHONE 757-460-9348
WX ASOS at PHF (12 nm NW): PHONE 757-874-3682
WX AWOS-3 at PVG (16 nm SW): 118.375 (757-465-2175)
WX ASOS at NTU (17 nm SE): PHONE DSN 433-3619 or 757-433-3619

Nearby radio navigation aids

VOR radial/distance  VOR name  Freq  Var
ORFr334/8.9NORFOLK VORTAC116.9007W
CCVr226/24.6CAPE CHARLES VORTAC112.2010W
HCMr150/32.5HARCUM VORTAC108.8007W
FKNr071/38.7FRANKLIN VORTAC110.6009W

 
NDB name  Hdg/Dist  Freq  Var  ID
INGLE357/10.832909WOR --- .-.
WAKEFIELD098/33.727411WAKQ .- -.- --.-

Heliport Services

Runway Information

Helipad H1

Dimensions: 35 x 35 ft. / 11 x 11 m
Surface: concrete
Traffic pattern: leftleft

Heliport Ownership and Management from official FAA records

Ownership: Privately-owned
Owner: DEPT OF ARMY HQ, DARRELL MILTON
HQ-TRA-DOC, ATTN: G-3-5-7, FLIGHT OPS
FT MONROE, VA 23651
Phone 757-788-3187
Manager: DARRELL MILTON
HQ-TRA-DOC, ATTN: G-3-5-7, FLIGHT OPS
FT MONROE, VA 23651
Phone 757-788-3187

Additional Remarks

HELICOPTER ONLY.
NUMEROUS BIRDS INVOF ARPT. DO NOT OVERFLY POST.
24 HOUR PPR FOR LDG: 757-788-3187.

Instrument Procedures

There are no published instrument procedures at VG35.

Some nearby airports with instrument procedures:

KNGU - Norfolk Naval Station (Chambers Field) (5 nm S)
KLFI - Langley Air Force Base (5 nm NW)
KORF - Norfolk International Airport (9 nm SE)
KPHF - Newport News/Williamsburg International Airport (12 nm NW)
KPVG - Hampton Roads Executive Airport (16 nm SW)
KFAF - Felker Army Airfield (16 nm NW)
KNTU - Oceana Naval Air Station (Apollo Soucek Field) (17 nm SE)
 
Loc | Ops | Rwys | IFR | FBO | Links
Com | Nav | Svcs | Stats | Notes

Virginia Festival of Flight
 
Area around VG35 (Walker Army Heliport)
 
Road maps at: MapQuest Bing Google
 
Aerial photo
No photo
 
Sectional chart

 
Airport distance calculator
Flying to Walker Army Heliport? Find the distance to fly.

From to VG35

Sunrise and sunset
Times for 26-Sep-2017
 Local
(UTC-4)
 Zulu
(UTC)
Morning civil twilight06:3110:31
Sunrise06:5710:57
Sunset18:5622:56
Evening civil twilight19:2223:22

Current date and time
Zulu (UTC)  26-Sep-2017 14:41:35
Local (UTC-4)  26-Sep-2017 10:41:35
 
METAR
KLFI 
4nm NW 
261358Z 03014G18KT 2 1/2SM BR OVC005 23/23 A2992 RMK AO2A RAE1258 SLP139 T02270227 52004
KNGU 
6nm S 
261359Z 03013G20KT 6SM BR OVC005 24/22 A2993 RMK AO2 SLP135 T02440217
KORF 
8nm SE 
261351Z 03018G25KT 7SM OVC004 23/23 A2991 RMK AO2 SLP128 T02330228
KPHF 
12nm NW 
261415Z 03010KT 3SM BR OVC005 23/22 A2993 RMK AO2 RAE1357 P0000 T02280217
KPVG 
16nm SW 
261356Z AUTO 03009KT 4SM BR OVC004 23/22 A2992 RMK AO2 SLP132 T02280222
KFAF 
16nm W 
261358Z 02008KT 10SM OVC007 23/21 A2991 RMK AO2A SLP132 T02300211 $
KNTU 
18nm SE 
261412Z 04013KT 9SM BR OVC004 23/22 A2989 RMK AO2 T02280217
TAF
KLFI 
4nm NW 
261335Z 2613/2715 04012G18KT 4800 -RA OVC005 QNH2986INS BECMG 2613/2614 04015G25KT 4800 -RA OVC005 QNH2982INS BECMG 2623/2624 04012KT 9999 NSW OVC010 QNH2975INS BECMG 2711/2712 36012G18KT 9999 FEW003 OVC009 QNH2975INS TEMPO 2713/2715 36015G25KT TX24/2620Z TN21/2709Z
KNGU 
6nm S 
2607/2707 04012G20KT 9000 BR BKN005 OVC015 QNH2981INS FM261000 03018G23KT 8000 BR VCSH OVC007 QNH2979INS FM261800 02018G23KT 9000 BR VCSH BKN009 OVC015 QNH2974INS TEMPO 2618/2623 VRB20G30KT 3200 -SHRA BR FM270300 02020G30KT 9999 BKN015 QNH2968 T21/2610Z T27/2619Z FN00182
KORF 
8nm SE 
260913Z 2609/2706 04013G21KT P6SM OVC005 TEMPO 2609/2612 3SM BR OVC002 FM261200 04016G25KT P6SM VCSH OVC007 FM261600 04017G26KT P6SM BKN010 FM270000 03019G29KT P6SM BKN015
KPHF 
12nm NW 
261001Z 2610/2706 04009G16KT P6SM VCSH OVC008 TEMPO 2610/2612 2SM BR OVC005 FM261200 04012G20KT P6SM VCSH OVC007 FM261800 04016G24KT P6SM BKN015 FM270000 03013G21KT P6SM BKN020
KFAF 
16nm W 
261420Z 2614/2716 04012KT 9999 OVC007 QNH2985INS BECMG 2615/2616 04012G18KT 9999 OVC010 QNH2980INS BECMG 2623/2624 04012KT 9999 OVC010 QNH2976INS BECMG 2711/2712 36012G18KT 9999 FEW003 OVC010 QNH2976INS TEMPO 2714/2716 36020G30KT 510003 TX27/2620Z TN21/2709Z
KNTU 
18nm SE 
2610/2707 04015G25KT 4800 BR OVC002 QNH2981INS FM261200 04018G28KT 6000 BR VCSH OVC004 QNH2979INS TEMPO 2614/2618 3200 -RA BR FM261800 03020G32KT 9000 BR VCSH BKN007 OVC015 QNH2974INS TEMPO 2618/2623 VRB23G33KT 3200 -SHRA BR OVC003 FM270300 03025G35KT 9999 OVC002 QNH2968INS T27/2619Z T19/2709Z AMD 1015Z FN20008
NOTAMs
Click for the latest NOTAMs
NOTAMs are issued by the DoD/FAA and will open in a separate window not controlled by AirNav.

 

 
 

Would you like to see your business listed on this page?

 If your business provides an interesting product or service to pilots, flight crews, aircraft, or users of the Walker Army Heliport, you should consider listing it here.  To start the listing process, click on the button below
 
Add a business
 

Other Pages about Walker Army Heliport

Update a link
 
Copyright © AirNav, LLC. All rights reserved. Privacy Policy  Contact